sensor_id;sensor_type;location;lat;lon;timestamp;P1;durP1;ratioP1;P2;durP2;ratioP2
52554;SDS011;38455;52.710;6.502;2022-12-31T00:00:00;9.55;;;3.58;;
52554;SDS011;38455;52.710;6.502;2022-12-31T00:02:26;12.20;;;3.72;;
52554;SDS011;38455;52.710;6.502;2022-12-31T00:04:53;8.85;;;3.40;;
52554;SDS011;38455;52.710;6.502;2022-12-31T00:07:19;9.80;;;4.20;;
52554;SDS011;38455;52.710;6.502;2022-12-31T00:09:44;10.20;;;3.80;;
52554;SDS011;38455;52.710;6.502;2022-12-31T00:12:10;7.47;;;3.58;;
52554;SDS011;38455;52.710;6.502;2022-12-31T00:14:35;7.97;;;3.50;;
52554;SDS011;38455;52.710;6.502;2022-12-31T00:17:01;7.03;;;3.42;;
52554;SDS011;38455;52.710;6.502;2022-12-31T00:19:27;9.48;;;3.88;;
52554;SDS011;38455;52.710;6.502;2022-12-31T00:21:52;8.95;;;3.63;;
52554;SDS011;38455;52.710;6.502;2022-12-31T00:24:18;7.85;;;4.13;;
52554;SDS011;38455;52.710;6.502;2022-12-31T00:26:44;10.80;;;3.55;;
52554;SDS011;38455;52.710;6.502;2022-12-31T00:29:09;6.60;;;3.30;;
52554;SDS011;38455;52.710;6.502;2022-12-31T00:31:36;7.82;;;3.80;;
52554;SDS011;38455;52.710;6.502;2022-12-31T00:34:02;8.20;;;4.13;;
52554;SDS011;38455;52.710;6.502;2022-12-31T00:36:29;7.00;;;3.45;;
52554;SDS011;38455;52.710;6.502;2022-12-31T00:38:58;8.15;;;4.18;;
52554;SDS011;38455;52.710;6.502;2022-12-31T00:41:24;8.00;;;3.05;;
52554;SDS011;38455;52.710;6.502;2022-12-31T00:43:51;12.23;;;3.42;;
52554;SDS011;38455;52.710;6.502;2022-12-31T00:46:17;5.88;;;3.30;;
52554;SDS011;38455;52.710;6.502;2022-12-31T00:48:43;11.20;;;3.65;;
52554;SDS011;38455;52.710;6.502;2022-12-31T00:51:12;8.52;;;3.53;;
52554;SDS011;38455;52.710;6.502;2022-12-31T00:53:39;6.57;;;3.20;;
52554;SDS011;38455;52.710;6.502;2022-12-31T00:56:07;8.30;;;3.85;;
52554;SDS011;38455;52.710;6.502;2022-12-31T00:58:35;8.43;;;3.38;;
52554;SDS011;38455;52.710;6.502;2022-12-31T01:01:17;5.97;;;3.22;;
52554;SDS011;38455;52.710;6.502;2022-12-31T01:06:14;8.88;;;3.00;;
52554;SDS011;38455;52.710;6.502;2022-12-31T01:08:40;5.35;;;2.78;;
52554;SDS011;38455;52.710;6.502;2022-12-31T01:11:06;6.03;;;3.00;;
52554;SDS011;38455;52.710;6.502;2022-12-31T01:16:31;5.35;;;2.78;;
52554;SDS011;38455;52.710;6.502;2022-12-31T01:19:15;4.93;;;2.70;;
52554;SDS011;38455;52.710;6.502;2022-12-31T01:21:42;8.13;;;3.17;;
52554;SDS011;38455;52.710;6.502;2022-12-31T01:24:09;5.88;;;2.47;;
52554;SDS011;38455;52.710;6.502;2022-12-31T01:26:35;3.53;;;2.33;;
52554;SDS011;38455;52.710;6.502;2022-12-31T01:29:02;3.88;;;2.00;;
52554;SDS011;38455;52.710;6.502;2022-12-31T01:31:28;7.00;;;2.15;;
52554;SDS011;38455;52.710;6.502;2022-12-31T01:33:54;3.95;;;2.38;;
52554;SDS011;38455;52.710;6.502;2022-12-31T01:36:21;5.60;;;2.40;;
52554;SDS011;38455;52.710;6.502;2022-12-31T01:38:48;4.43;;;1.90;;
52554;SDS011;38455;52.710;6.502;2022-12-31T01:41:15;5.93;;;2.08;;
52554;SDS011;38455;52.710;6.502;2022-12-31T01:46:48;7.05;;;2.05;;
52554;SDS011;38455;52.710;6.502;2022-12-31T01:51:43;2.63;;;1.45;;
52554;SDS011;38455;52.710;6.502;2022-12-31T01:54:12;4.63;;;1.60;;
52554;SDS011;38455;52.710;6.502;2022-12-31T01:56:42;4.88;;;1.88;;
52554;SDS011;38455;52.710;6.502;2022-12-31T01:59:11;6.55;;;1.45;;
52554;SDS011;38455;52.710;6.502;2022-12-31T02:01:40;3.00;;;1.25;;
52554;SDS011;38455;52.710;6.502;2022-12-31T02:04:10;3.40;;;1.30;;
52554;SDS011;38455;52.710;6.502;2022-12-31T02:06:42;3.85;;;1.08;;
52554;SDS011;38455;52.710;6.502;2022-12-31T02:09:14;3.50;;;0.95;;
52554;SDS011;38455;52.710;6.502;2022-12-31T02:11:40;6.53;;;1.20;;
52554;SDS011;38455;52.710;6.502;2022-12-31T02:14:48;2.58;;;1.05;;
52554;SDS011;38455;52.710;6.502;2022-12-31T02:22:19;2.88;;;1.40;;
52554;SDS011;38455;52.710;6.502;2022-12-31T02:30:37;3.08;;;0.95;;
52554;SDS011;38455;52.710;6.502;2022-12-31T02:33:09;3.38;;;1.35;;
52554;SDS011;38455;52.710;6.502;2022-12-31T02:35:46;3.42;;;1.10;;
52554;SDS011;38455;52.710;6.502;2022-12-31T02:38:19;3.22;;;1.42;;
52554;SDS011;38455;52.710;6.502;2022-12-31T02:40:52;6.78;;;1.80;;
52554;SDS011;38455;52.710;6.502;2022-12-31T02:43:18;5.43;;;1.60;;
52554;SDS011;38455;52.710;6.502;2022-12-31T02:45:45;3.35;;;1.42;;
52554;SDS011;38455;52.710;6.502;2022-12-31T02:48:16;3.38;;;1.00;;
52554;SDS011;38455;52.710;6.502;2022-12-31T02:51:40;4.63;;;1.17;;
52554;SDS011;38455;52.710;6.502;2022-12-31T02:54:01;6.32;;;2.10;;
52554;SDS011;38455;52.710;6.502;2022-12-31T02:56:57;4.88;;;1.70;;
52554;SDS011;38455;52.710;6.502;2022-12-31T02:59:35;5.88;;;1.60;;
52554;SDS011;38455;52.710;6.502;2022-12-31T03:02:29;2.80;;;1.50;;
52554;SDS011;38455;52.710;6.502;2022-12-31T03:04:59;2.38;;;1.40;;
52554;SDS011;38455;52.710;6.502;2022-12-31T03:07:30;2.33;;;1.52;;
52554;SDS011;38455;52.710;6.502;2022-12-31T03:09:56;4.43;;;1.90;;
52554;SDS011;38455;52.710;6.502;2022-12-31T03:12:25;5.32;;;2.30;;
52554;SDS011;38455;52.710;6.502;2022-12-31T03:21:10;3.38;;;2.10;;
52554;SDS011;38455;52.710;6.502;2022-12-31T03:23:55;5.28;;;2.65;;
52554;SDS011;38455;52.710;6.502;2022-12-31T03:26:39;6.10;;;2.92;;
52554;SDS011;38455;52.710;6.502;2022-12-31T03:29:05;8.05;;;3.30;;
52554;SDS011;38455;52.710;6.502;2022-12-31T03:31:30;6.63;;;3.20;;
52554;SDS011;38455;52.710;6.502;2022-12-31T03:33:56;9.82;;;3.75;;
52554;SDS011;38455;52.710;6.502;2022-12-31T03:36:22;5.72;;;4.07;;
52554;SDS011;38455;52.710;6.502;2022-12-31T03:38:47;6.90;;;3.60;;
52554;SDS011;38455;52.710;6.502;2022-12-31T03:41:13;6.68;;;3.17;;
52554;SDS011;38455;52.710;6.502;2022-12-31T03:43:38;4.10;;;3.28;;
52554;SDS011;38455;52.710;6.502;2022-12-31T03:46:04;5.63;;;2.90;;
52554;SDS011;38455;52.710;6.502;2022-12-31T03:48:30;9.65;;;3.60;;
52554;SDS011;38455;52.710;6.502;2022-12-31T03:50:55;7.13;;;3.30;;
52554;SDS011;38455;52.710;6.502;2022-12-31T03:53:21;5.88;;;3.65;;
52554;SDS011;38455;52.710;6.502;2022-12-31T03:55:50;7.03;;;3.30;;
52554;SDS011;38455;52.710;6.502;2022-12-31T03:58:17;6.85;;;3.78;;
52554;SDS011;38455;52.710;6.502;2022-12-31T04:00:43;4.43;;;3.17;;
52554;SDS011;38455;52.710;6.502;2022-12-31T04:03:08;7.43;;;2.95;;
52554;SDS011;38455;52.710;6.502;2022-12-31T04:05:34;7.55;;;2.63;;
52554;SDS011;38455;52.710;6.502;2022-12-31T04:07:59;5.63;;;2.70;;
52554;SDS011;38455;52.710;6.502;2022-12-31T04:10:26;6.10;;;2.42;;
52554;SDS011;38455;52.710;6.502;2022-12-31T04:12:52;4.07;;;2.08;;
52554;SDS011;38455;52.710;6.502;2022-12-31T04:15:18;4.05;;;2.00;;
52554;SDS011;38455;52.710;6.502;2022-12-31T04:17:45;7.50;;;1.90;;
52554;SDS011;38455;52.710;6.502;2022-12-31T04:20:12;5.65;;;1.80;;
52554;SDS011;38455;52.710;6.502;2022-12-31T04:22:38;4.50;;;1.60;;
52554;SDS011;38455;52.710;6.502;2022-12-31T04:25:04;5.28;;;1.67;;
52554;SDS011;38455;52.710;6.502;2022-12-31T04:27:35;3.28;;;1.30;;
52554;SDS011;38455;52.710;6.502;2022-12-31T04:30:02;5.05;;;1.55;;
52554;SDS011;38455;52.710;6.502;2022-12-31T04:32:27;4.82;;;1.33;;
52554;SDS011;38455;52.710;6.502;2022-12-31T04:34:53;4.90;;;1.65;;
52554;SDS011;38455;52.710;6.502;2022-12-31T04:37:19;4.18;;;1.42;;
52554;SDS011;38455;52.710;6.502;2022-12-31T04:39:44;7.82;;;1.63;;
52554;SDS011;38455;52.710;6.502;2022-12-31T04:42:10;5.30;;;1.85;;
52554;SDS011;38455;52.710;6.502;2022-12-31T04:44:35;6.72;;;1.77;;
52554;SDS011;38455;52.710;6.502;2022-12-31T04:47:01;6.22;;;1.80;;
52554;SDS011;38455;52.710;6.502;2022-12-31T04:49:27;7.93;;;2.17;;
52554;SDS011;38455;52.710;6.502;2022-12-31T04:51:52;5.57;;;2.30;;
52554;SDS011;38455;52.710;6.502;2022-12-31T04:54:18;6.60;;;2.30;;
52554;SDS011;38455;52.710;6.502;2022-12-31T04:56:43;8.35;;;2.72;;
52554;SDS011;38455;52.710;6.502;2022-12-31T04:59:09;6.82;;;2.88;;
52554;SDS011;38455;52.710;6.502;2022-12-31T05:01:35;7.90;;;3.05;;
52554;SDS011;38455;52.710;6.502;2022-12-31T05:04:02;8.20;;;3.55;;
52554;SDS011;38455;52.710;6.502;2022-12-31T05:06:28;9.05;;;3.33;;
52554;SDS011;38455;52.710;6.502;2022-12-31T05:08:53;5.85;;;2.90;;
52554;SDS011;38455;52.710;6.502;2022-12-31T05:11:19;16.33;;;3.80;;
52554;SDS011;38455;52.710;6.502;2022-12-31T05:13:45;7.68;;;3.90;;
52554;SDS011;38455;52.710;6.502;2022-12-31T05:16:11;8.60;;;4.28;;
52554;SDS011;38455;52.710;6.502;2022-12-31T05:18:36;9.13;;;4.63;;
52554;SDS011;38455;52.710;6.502;2022-12-31T05:21:02;10.13;;;5.40;;
52554;SDS011;38455;52.710;6.502;2022-12-31T05:23:28;13.15;;;6.38;;
52554;SDS011;38455;52.710;6.502;2022-12-31T05:25:53;13.32;;;6.75;;
52554;SDS011;38455;52.710;6.502;2022-12-31T05:28:20;11.90;;;6.65;;
52554;SDS011;38455;52.710;6.502;2022-12-31T05:30:48;10.40;;;6.53;;
52554;SDS011;38455;52.710;6.502;2022-12-31T05:33:15;11.00;;;6.82;;
52554;SDS011;38455;52.710;6.502;2022-12-31T05:35:41;12.25;;;6.85;;
52554;SDS011;38455;52.710;6.502;2022-12-31T05:38:08;11.30;;;6.32;;
52554;SDS011;38455;52.710;6.502;2022-12-31T05:40:33;11.20;;;6.85;;
52554;SDS011;38455;52.710;6.502;2022-12-31T05:42:59;8.85;;;6.05;;
52554;SDS011;38455;52.710;6.502;2022-12-31T05:45:25;8.45;;;5.28;;
52554;SDS011;38455;52.710;6.502;2022-12-31T05:47:50;9.75;;;5.13;;
52554;SDS011;38455;52.710;6.502;2022-12-31T05:50:16;11.20;;;6.00;;
52554;SDS011;38455;52.710;6.502;2022-12-31T05:52:42;8.75;;;5.20;;
52554;SDS011;38455;52.710;6.502;2022-12-31T05:55:09;9.35;;;5.25;;
52554;SDS011;38455;52.710;6.502;2022-12-31T05:57:35;6.45;;;4.45;;
52554;SDS011;38455;52.710;6.502;2022-12-31T06:00:03;7.07;;;4.60;;
52554;SDS011;38455;52.710;6.502;2022-12-31T06:02:29;6.88;;;4.38;;
52554;SDS011;38455;52.710;6.502;2022-12-31T06:04:55;9.65;;;4.80;;
52554;SDS011;38455;52.710;6.502;2022-12-31T06:07:20;7.05;;;4.55;;
52554;SDS011;38455;52.710;6.502;2022-12-31T06:09:46;6.88;;;4.32;;
52554;SDS011;38455;52.710;6.502;2022-12-31T06:12:12;7.85;;;4.70;;
52554;SDS011;38455;52.710;6.502;2022-12-31T06:14:38;7.07;;;3.90;;
52554;SDS011;38455;52.710;6.502;2022-12-31T06:17:03;8.30;;;4.07;;
52554;SDS011;38455;52.710;6.502;2022-12-31T06:19:29;10.77;;;4.90;;
52554;SDS011;38455;52.710;6.502;2022-12-31T06:21:56;7.90;;;4.90;;
52554;SDS011;38455;52.710;6.502;2022-12-31T06:24:21;9.10;;;4.40;;
52554;SDS011;38455;52.710;6.502;2022-12-31T06:26:47;7.15;;;4.82;;
52554;SDS011;38455;52.710;6.502;2022-12-31T06:29:13;10.02;;;5.68;;
52554;SDS011;38455;52.710;6.502;2022-12-31T06:31:38;8.93;;;5.32;;
52554;SDS011;38455;52.710;6.502;2022-12-31T06:34:04;9.15;;;5.10;;
52554;SDS011;38455;52.710;6.502;2022-12-31T06:36:29;8.05;;;4.80;;
52554;SDS011;38455;52.710;6.502;2022-12-31T06:38:55;6.25;;;4.28;;
52554;SDS011;38455;52.710;6.502;2022-12-31T06:41:21;6.22;;;4.13;;
52554;SDS011;38455;52.710;6.502;2022-12-31T06:43:46;11.82;;;4.20;;
52554;SDS011;38455;52.710;6.502;2022-12-31T06:46:14;8.98;;;4.10;;
52554;SDS011;38455;52.710;6.502;2022-12-31T06:48:41;6.43;;;3.63;;
52554;SDS011;38455;52.710;6.502;2022-12-31T06:51:12;5.97;;;3.33;;
52554;SDS011;38455;52.710;6.502;2022-12-31T06:53:39;9.25;;;4.47;;
52554;SDS011;38455;52.710;6.502;2022-12-31T06:56:11;6.13;;;3.72;;
52554;SDS011;38455;52.710;6.502;2022-12-31T06:58:40;6.95;;;3.80;;
52554;SDS011;38455;52.710;6.502;2022-12-31T07:01:11;9.27;;;4.32;;
52554;SDS011;38455;52.710;6.502;2022-12-31T07:03:56;6.32;;;4.32;;
52554;SDS011;38455;52.710;6.502;2022-12-31T07:06:42;5.90;;;3.95;;
52554;SDS011;38455;52.710;6.502;2022-12-31T07:14:44;5.00;;;2.88;;
52554;SDS011;38455;52.710;6.502;2022-12-31T07:17:37;4.72;;;3.00;;
52554;SDS011;38455;52.710;6.502;2022-12-31T07:20:34;8.73;;;3.50;;
52554;SDS011;38455;52.710;6.502;2022-12-31T07:23:00;5.28;;;3.45;;
52554;SDS011;38455;52.710;6.502;2022-12-31T07:25:26;5.55;;;3.67;;
52554;SDS011;38455;52.710;6.502;2022-12-31T07:33:45;6.38;;;3.92;;
52554;SDS011;38455;52.710;6.502;2022-12-31T07:39:20;5.90;;;3.60;;
52554;SDS011;38455;52.710;6.502;2022-12-31T07:42:04;5.97;;;3.90;;
52554;SDS011;38455;52.710;6.502;2022-12-31T07:45:00;8.40;;;4.43;;
52554;SDS011;38455;52.710;6.502;2022-12-31T07:47:33;8.05;;;4.80;;
52554;SDS011;38455;52.710;6.502;2022-12-31T07:49:58;8.80;;;5.30;;
52554;SDS011;38455;52.710;6.502;2022-12-31T07:52:24;8.55;;;5.30;;
52554;SDS011;38455;52.710;6.502;2022-12-31T07:54:50;7.72;;;5.07;;
52554;SDS011;38455;52.710;6.502;2022-12-31T07:57:16;6.85;;;4.57;;
52554;SDS011;38455;52.710;6.502;2022-12-31T08:05:19;7.28;;;4.72;;
52554;SDS011;38455;52.710;6.502;2022-12-31T08:07:50;6.93;;;4.90;;
52554;SDS011;38455;52.710;6.502;2022-12-31T08:10:41;8.43;;;4.68;;
52554;SDS011;38455;52.710;6.502;2022-12-31T08:13:23;6.90;;;4.35;;
52554;SDS011;38455;52.710;6.502;2022-12-31T08:15:49;7.35;;;3.92;;
52554;SDS011;38455;52.710;6.502;2022-12-31T08:18:15;6.70;;;4.22;;
52554;SDS011;38455;52.710;6.502;2022-12-31T08:20:49;6.15;;;4.18;;
52554;SDS011;38455;52.710;6.502;2022-12-31T08:26:02;7.70;;;3.75;;
52554;SDS011;38455;52.710;6.502;2022-12-31T08:28:52;6.35;;;3.70;;
52554;SDS011;38455;52.710;6.502;2022-12-31T08:31:27;5.15;;;3.17;;
52554;SDS011;38455;52.710;6.502;2022-12-31T08:36:44;4.40;;;3.28;;
52554;SDS011;38455;52.710;6.502;2022-12-31T08:41:55;4.93;;;3.50;;
52554;SDS011;38455;52.710;6.502;2022-12-31T08:47:32;5.70;;;3.63;;
52554;SDS011;38455;52.710;6.502;2022-12-31T08:50:11;5.18;;;3.42;;
52554;SDS011;38455;52.710;6.502;2022-12-31T08:52:38;4.03;;;2.83;;
52554;SDS011;38455;52.710;6.502;2022-12-31T08:55:04;3.72;;;2.67;;
52554;SDS011;38455;52.710;6.502;2022-12-31T09:10:17;3.65;;;2.13;;
52554;SDS011;38455;52.710;6.502;2022-12-31T09:18:33;5.70;;;1.38;;
52554;SDS011;38455;52.710;6.502;2022-12-31T09:21:04;2.25;;;1.30;;
52554;SDS011;38455;52.710;6.502;2022-12-31T09:23:30;3.28;;;1.10;;
52554;SDS011;38455;52.710;6.502;2022-12-31T09:28:35;1.83;;;0.70;;
52554;SDS011;38455;52.710;6.502;2022-12-31T09:31:03;2.65;;;0.60;;
52554;SDS011;38455;52.710;6.502;2022-12-31T09:36:25;2.00;;;0.65;;
52554;SDS011;38455;52.710;6.502;2022-12-31T09:41:36;3.90;;;0.60;;
52554;SDS011;38455;52.710;6.502;2022-12-31T09:50:16;3.25;;;0.60;;
52554;SDS011;38455;52.710;6.502;2022-12-31T09:52:57;0.95;;;0.52;;
52554;SDS011;38455;52.710;6.502;2022-12-31T10:06:21;2.40;;;0.95;;
52554;SDS011;38455;52.710;6.502;2022-12-31T10:15:15;3.83;;;1.55;;
52554;SDS011;38455;52.710;6.502;2022-12-31T10:29:09;2.38;;;0.60;;
52554;SDS011;38455;52.710;6.502;2022-12-31T10:34:42;3.10;;;1.02;;
52554;SDS011;38455;52.710;6.502;2022-12-31T10:37:22;3.17;;;0.95;;
52554;SDS011;38455;52.710;6.502;2022-12-31T10:56:57;3.92;;;1.33;;
52554;SDS011;38455;52.710;6.502;2022-12-31T11:02:27;3.13;;;1.40;;
52554;SDS011;38455;52.710;6.502;2022-12-31T11:18:25;4.13;;;1.52;;
52554;SDS011;38455;52.710;6.502;2022-12-31T11:24:09;4.55;;;1.83;;
52554;SDS011;38455;52.710;6.502;2022-12-31T11:34:56;3.92;;;1.80;;
52554;SDS011;38455;52.710;6.502;2022-12-31T11:37:57;6.55;;;2.10;;
52554;SDS011;38455;52.710;6.502;2022-12-31T11:43:26;3.63;;;1.77;;
52554;SDS011;38455;52.710;6.502;2022-12-31T11:49:10;6.75;;;1.92;;
52554;SDS011;38455;52.710;6.502;2022-12-31T11:51:59;5.07;;;2.13;;
52554;SDS011;38455;52.710;6.502;2022-12-31T11:54:52;5.10;;;2.38;;
52554;SDS011;38455;52.710;6.502;2022-12-31T12:00:02;4.38;;;1.88;;
52554;SDS011;38455;52.710;6.502;2022-12-31T12:02:33;3.25;;;1.80;;
52554;SDS011;38455;52.710;6.502;2022-12-31T12:05:02;6.40;;;1.95;;
52554;SDS011;38455;52.710;6.502;2022-12-31T12:07:30;4.78;;;2.03;;
52554;SDS011;38455;52.710;6.502;2022-12-31T12:09:57;4.72;;;1.85;;
52554;SDS011;38455;52.710;6.502;2022-12-31T12:12:36;6.35;;;2.55;;
52554;SDS011;38455;52.710;6.502;2022-12-31T12:15:05;9.57;;;2.58;;
52554;SDS011;38455;52.710;6.502;2022-12-31T12:17:33;3.80;;;1.98;;
52554;SDS011;38455;52.710;6.502;2022-12-31T12:20:00;4.07;;;2.20;;
52554;SDS011;38455;52.710;6.502;2022-12-31T12:22:29;5.90;;;2.10;;
52554;SDS011;38455;52.710;6.502;2022-12-31T12:24:56;4.57;;;2.00;;
52554;SDS011;38455;52.710;6.502;2022-12-31T12:27:28;6.78;;;1.60;;
52554;SDS011;38455;52.710;6.502;2022-12-31T12:29:56;3.65;;;1.70;;
52554;SDS011;38455;52.710;6.502;2022-12-31T12:32:22;5.63;;;2.30;;
52554;SDS011;38455;52.710;6.502;2022-12-31T12:34:50;5.28;;;2.20;;
52554;SDS011;38455;52.710;6.502;2022-12-31T12:40:17;4.45;;;2.15;;
52554;SDS011;38455;52.710;6.502;2022-12-31T12:42:48;5.65;;;2.28;;
52554;SDS011;38455;52.710;6.502;2022-12-31T12:45:17;4.57;;;2.60;;
52554;SDS011;38455;52.710;6.502;2022-12-31T12:47:48;6.85;;;3.03;;
52554;SDS011;38455;52.710;6.502;2022-12-31T12:50:19;4.75;;;2.35;;
52554;SDS011;38455;52.710;6.502;2022-12-31T12:52:51;3.35;;;1.80;;
52554;SDS011;38455;52.710;6.502;2022-12-31T12:55:38;2.45;;;1.77;;
52554;SDS011;38455;52.710;6.502;2022-12-31T12:58:17;4.85;;;1.90;;
52554;SDS011;38455;52.710;6.502;2022-12-31T13:06:55;7.15;;;3.03;;
52554;SDS011;38455;52.710;6.502;2022-12-31T13:09:40;9.77;;;4.72;;
52554;SDS011;38455;52.710;6.502;2022-12-31T13:17:56;11.90;;;6.78;;
52554;SDS011;38455;52.710;6.502;2022-12-31T13:25:53;5.28;;;3.50;;
52554;SDS011;38455;52.710;6.502;2022-12-31T13:28:35;7.75;;;3.97;;
52554;SDS011;38455;52.710;6.502;2022-12-31T13:31:08;7.32;;;3.70;;
52554;SDS011;38455;52.710;6.502;2022-12-31T13:33:38;6.78;;;4.32;;
52554;SDS011;38455;52.710;6.502;2022-12-31T13:36:09;7.03;;;3.50;;
52554;SDS011;38455;52.710;6.502;2022-12-31T13:38:52;7.22;;;4.07;;
52554;SDS011;38455;52.710;6.502;2022-12-31T13:41:33;6.82;;;3.95;;
52554;SDS011;38455;52.710;6.502;2022-12-31T13:49:20;13.82;;;6.38;;
52554;SDS011;38455;52.710;6.502;2022-12-31T13:52:15;11.60;;;5.28;;
52554;SDS011;38455;52.710;6.502;2022-12-31T13:54:57;9.75;;;4.03;;
52554;SDS011;38455;52.710;6.502;2022-12-31T14:00:03;7.57;;;3.00;;
52554;SDS011;38455;52.710;6.502;2022-12-31T14:02:34;4.50;;;2.72;;
52554;SDS011;38455;52.710;6.502;2022-12-31T14:05:17;7.22;;;2.72;;
52554;SDS011;38455;52.710;6.502;2022-12-31T14:07:53;9.68;;;3.17;;
52554;SDS011;38455;52.710;6.502;2022-12-31T14:10:25;8.98;;;3.60;;
52554;SDS011;38455;52.710;6.502;2022-12-31T14:16:01;10.68;;;5.63;;
52554;SDS011;38455;52.710;6.502;2022-12-31T14:19:21;17.95;;;8.10;;
52554;SDS011;38455;52.710;6.502;2022-12-31T14:21:47;13.98;;;7.20;;
52554;SDS011;38455;52.710;6.502;2022-12-31T14:24:44;10.98;;;4.10;;
52554;SDS011;38455;52.710;6.502;2022-12-31T14:29:51;9.70;;;2.80;;
52554;SDS011;38455;52.710;6.502;2022-12-31T14:32:33;6.20;;;3.45;;
52554;SDS011;38455;52.710;6.502;2022-12-31T14:46:34;10.13;;;3.30;;
52554;SDS011;38455;52.710;6.502;2022-12-31T14:52:06;9.45;;;4.07;;
52554;SDS011;38455;52.710;6.502;2022-12-31T14:54:55;9.95;;;3.55;;
52554;SDS011;38455;52.710;6.502;2022-12-31T14:57:23;9.13;;;4.10;;
52554;SDS011;38455;52.710;6.502;2022-12-31T14:59:53;8.85;;;4.47;;
52554;SDS011;38455;52.710;6.502;2022-12-31T15:11:00;10.07;;;4.13;;
52554;SDS011;38455;52.710;6.502;2022-12-31T15:22:13;9.40;;;4.55;;
52554;SDS011;38455;52.710;6.502;2022-12-31T15:24:20;7.75;;;3.97;;
52554;SDS011;38455;52.710;6.502;2022-12-31T15:26:58;9.60;;;4.28;;
52554;SDS011;38455;52.710;6.502;2022-12-31T15:29:32;13.20;;;4.50;;
52554;SDS011;38455;52.710;6.502;2022-12-31T15:32:06;9.82;;;4.10;;
52554;SDS011;38455;52.710;6.502;2022-12-31T15:37:25;13.93;;;5.53;;
52554;SDS011;38455;52.710;6.502;2022-12-31T15:42:45;12.25;;;5.47;;
52554;SDS011;38455;52.710;6.502;2022-12-31T15:45:35;10.35;;;5.03;;
52554;SDS011;38455;52.710;6.502;2022-12-31T15:48:23;9.63;;;4.60;;
52554;SDS011;38455;52.710;6.502;2022-12-31T15:50:54;13.35;;;6.53;;
52554;SDS011;38455;52.710;6.502;2022-12-31T15:55:53;8.80;;;5.13;;
52554;SDS011;38455;52.710;6.502;2022-12-31T15:58:23;11.88;;;5.63;;
52554;SDS011;38455;52.710;6.502;2022-12-31T16:00:56;17.60;;;10.75;;
52554;SDS011;38455;52.710;6.502;2022-12-31T16:03:31;13.27;;;5.82;;
52554;SDS011;38455;52.710;6.502;2022-12-31T16:06:06;13.35;;;6.80;;
52554;SDS011;38455;52.710;6.502;2022-12-31T16:08:38;15.45;;;6.57;;
52554;SDS011;38455;52.710;6.502;2022-12-31T16:11:08;15.43;;;6.28;;
52554;SDS011;38455;52.710;6.502;2022-12-31T16:13:35;12.88;;;6.68;;
52554;SDS011;38455;52.710;6.502;2022-12-31T16:16:06;14.73;;;7.43;;
52554;SDS011;38455;52.710;6.502;2022-12-31T16:18:42;12.70;;;6.38;;
52554;SDS011;38455;52.710;6.502;2022-12-31T16:24:01;12.57;;;4.93;;
52554;SDS011;38455;52.710;6.502;2022-12-31T16:26:29;12.48;;;4.88;;
52554;SDS011;38455;52.710;6.502;2022-12-31T16:28:58;13.23;;;4.50;;
52554;SDS011;38455;52.710;6.502;2022-12-31T16:31:24;17.13;;;10.80;;
52554;SDS011;38455;52.710;6.502;2022-12-31T16:34:01;25.02;;;15.10;;
52554;SDS011;38455;52.710;6.502;2022-12-31T16:36:28;56.65;;;41.65;;
52554;SDS011;38455;52.710;6.502;2022-12-31T16:39:00;64.75;;;50.08;;
52554;SDS011;38455;52.710;6.502;2022-12-31T16:44:47;20.10;;;7.63;;
52554;SDS011;38455;52.710;6.502;2022-12-31T16:47:26;10.32;;;4.90;;
52554;SDS011;38455;52.710;6.502;2022-12-31T16:50:00;16.10;;;4.47;;
52554;SDS011;38455;52.710;6.502;2022-12-31T16:55:00;12.52;;;4.70;;
52554;SDS011;38455;52.710;6.502;2022-12-31T16:57:39;13.55;;;4.78;;
52554;SDS011;38455;52.710;6.502;2022-12-31T17:00:06;12.77;;;4.30;;
52554;SDS011;38455;52.710;6.502;2022-12-31T17:02:39;14.23;;;4.18;;
52554;SDS011;38455;52.710;6.502;2022-12-31T17:05:21;17.55;;;4.90;;
52554;SDS011;38455;52.710;6.502;2022-12-31T17:07:49;14.52;;;4.75;;
52554;SDS011;38455;52.710;6.502;2022-12-31T17:10:17;16.10;;;5.50;;
52554;SDS011;38455;52.710;6.502;2022-12-31T17:12:55;12.10;;;4.15;;
52554;SDS011;38455;52.710;6.502;2022-12-31T17:15:24;11.63;;;4.72;;
52554;SDS011;38455;52.710;6.502;2022-12-31T17:17:54;23.70;;;5.15;;
52554;SDS011;38455;52.710;6.502;2022-12-31T17:20:24;13.32;;;4.80;;
52554;SDS011;38455;52.710;6.502;2022-12-31T17:22:52;12.57;;;4.43;;
52554;SDS011;38455;52.710;6.502;2022-12-31T17:33:00;12.32;;;4.15;;
52554;SDS011;38455;52.710;6.502;2022-12-31T17:35:47;10.70;;;3.47;;
52554;SDS011;38455;52.710;6.502;2022-12-31T17:43:17;18.02;;;5.07;;
52554;SDS011;38455;52.710;6.502;2022-12-31T17:45:45;13.73;;;4.22;;
52554;SDS011;38455;52.710;6.502;2022-12-31T17:48:14;13.15;;;5.00;;
52554;SDS011;38455;52.710;6.502;2022-12-31T17:50:45;13.98;;;4.35;;
52554;SDS011;38455;52.710;6.502;2022-12-31T17:53:13;10.15;;;3.67;;
52554;SDS011;38455;52.710;6.502;2022-12-31T17:55:39;12.10;;;4.18;;
52554;SDS011;38455;52.710;6.502;2022-12-31T17:58:06;14.38;;;4.20;;
52554;SDS011;38455;52.710;6.502;2022-12-31T18:00:33;9.95;;;3.38;;
52554;SDS011;38455;52.710;6.502;2022-12-31T18:03:01;10.63;;;4.22;;
52554;SDS011;38455;52.710;6.502;2022-12-31T18:05:26;8.45;;;4.22;;
52554;SDS011;38455;52.710;6.502;2022-12-31T18:07:52;14.70;;;4.93;;
52554;SDS011;38455;52.710;6.502;2022-12-31T18:10:19;14.32;;;3.58;;
52554;SDS011;38455;52.710;6.502;2022-12-31T18:12:46;8.25;;;4.22;;
52554;SDS011;38455;52.710;6.502;2022-12-31T18:15:18;10.73;;;4.57;;
52554;SDS011;38455;52.710;6.502;2022-12-31T18:17:47;13.30;;;3.92;;
52554;SDS011;38455;52.710;6.502;2022-12-31T18:20:13;13.30;;;4.75;;
52554;SDS011;38455;52.710;6.502;2022-12-31T18:22:40;13.65;;;4.80;;
52554;SDS011;38455;52.710;6.502;2022-12-31T18:25:09;12.52;;;4.05;;
52554;SDS011;38455;52.710;6.502;2022-12-31T18:27:38;12.95;;;3.58;;
52554;SDS011;38455;52.710;6.502;2022-12-31T18:30:06;11.48;;;4.40;;
52554;SDS011;38455;52.710;6.502;2022-12-31T18:32:33;15.27;;;4.63;;
52554;SDS011;38455;52.710;6.502;2022-12-31T18:35:01;10.68;;;4.70;;
52554;SDS011;38455;52.710;6.502;2022-12-31T18:37:27;13.18;;;3.50;;
52554;SDS011;38455;52.710;6.502;2022-12-31T18:39:53;14.85;;;4.50;;
52554;SDS011;38455;52.710;6.502;2022-12-31T18:42:18;8.15;;;3.53;;
52554;SDS011;38455;52.710;6.502;2022-12-31T18:44:47;12.38;;;4.07;;
52554;SDS011;38455;52.710;6.502;2022-12-31T18:47:14;8.27;;;3.47;;
52554;SDS011;38455;52.710;6.502;2022-12-31T18:49:41;7.80;;;3.25;;
52554;SDS011;38455;52.710;6.502;2022-12-31T18:52:12;12.55;;;4.15;;
52554;SDS011;38455;52.710;6.502;2022-12-31T18:54:39;8.18;;;3.53;;
52554;SDS011;38455;52.710;6.502;2022-12-31T18:57:04;8.55;;;2.65;;
52554;SDS011;38455;52.710;6.502;2022-12-31T18:59:30;9.43;;;3.40;;
52554;SDS011;38455;52.710;6.502;2022-12-31T19:01:56;8.70;;;3.25;;
52554;SDS011;38455;52.710;6.502;2022-12-31T19:04:21;12.10;;;3.47;;
52554;SDS011;38455;52.710;6.502;2022-12-31T19:06:47;8.50;;;3.10;;
52554;SDS011;38455;52.710;6.502;2022-12-31T19:09:13;11.57;;;3.08;;
52554;SDS011;38455;52.710;6.502;2022-12-31T19:11:40;16.08;;;4.20;;
52554;SDS011;38455;52.710;6.502;2022-12-31T19:14:19;9.45;;;3.65;;
52554;SDS011;38455;52.710;6.502;2022-12-31T19:16:50;9.43;;;3.72;;
52554;SDS011;38455;52.710;6.502;2022-12-31T19:19:18;11.20;;;4.32;;
52554;SDS011;38455;52.710;6.502;2022-12-31T19:21:44;11.68;;;4.18;;
52554;SDS011;38455;52.710;6.502;2022-12-31T19:24:20;7.90;;;3.42;;
52554;SDS011;38455;52.710;6.502;2022-12-31T19:26:47;8.40;;;3.38;;
52554;SDS011;38455;52.710;6.502;2022-12-31T19:29:18;11.57;;;3.63;;
52554;SDS011;38455;52.710;6.502;2022-12-31T19:31:49;7.10;;;3.38;;
52554;SDS011;38455;52.710;6.502;2022-12-31T19:34:15;7.60;;;3.33;;